Glen Cove, New York
Current Conditions -  °F | °C
As of 10:51 AM on Wednesday 28 Jan 2015 (Local Time) from KLGA Reporting Station
Scattered Clouds Scattered Clouds  
Wind Chill: 13°   Ceiling: Unl
Heat Index: 24°   Visibility: 10mi
Dew Point:   Wind: 12mph
Humidity: 46%   Direction: 340°NNW
Pressure: 30.06"   Gusts: NA
Location:  40.86°N, 73.63°W
Report Text: KLGA 281551Z 34010KT 10SM FEW095 SCT140 M04/M14 A3006 RMK AO2 SLP179 ACSL W T10441144 $
Loading
Personal Weather Stations






























Interactive Weather Map New forecast layout! Learn more

10-Day Weather Forecast

Advertisements
Track Severe Weather on mobile